sensor_id;sensor_type;location;lat;lon;timestamp;P1;durP1;ratioP1;P2;durP2;ratioP2
9276;SDS011;4676;42.678;23.244;2023-11-22T00:02:04;11.20;;;5.93;;
9276;SDS011;4676;42.678;23.244;2023-11-22T00:04:30;5.73;;;5.27;;
9276;SDS011;4676;42.678;23.244;2023-11-22T00:06:57;4.43;;;4.10;;
9276;SDS011;4676;42.678;23.244;2023-11-22T00:09:24;5.87;;;5.37;;
9276;SDS011;4676;42.678;23.244;2023-11-22T00:11:50;9.03;;;5.17;;
9276;SDS011;4676;42.678;23.244;2023-11-22T00:14:17;7.47;;;4.10;;
9276;SDS011;4676;42.678;23.244;2023-11-22T00:16:44;6.07;;;4.27;;
9276;SDS011;4676;42.678;23.244;2023-11-22T00:19:12;13.40;;;4.47;;
9276;SDS011;4676;42.678;23.244;2023-11-22T00:21:42;5.23;;;4.93;;
9276;SDS011;4676;42.678;23.244;2023-11-22T00:24:09;8.30;;;4.63;;
9276;SDS011;4676;42.678;23.244;2023-11-22T00:26:35;9.67;;;5.43;;
9276;SDS011;4676;42.678;23.244;2023-11-22T00:29:01;4.97;;;4.63;;
9276;SDS011;4676;42.678;23.244;2023-11-22T00:31:28;4.50;;;3.87;;
9276;SDS011;4676;42.678;23.244;2023-11-22T00:33:54;4.77;;;4.33;;
9276;SDS011;4676;42.678;23.244;2023-11-22T00:36:22;3.87;;;3.33;;
9276;SDS011;4676;42.678;23.244;2023-11-22T00:38:49;5.00;;;4.50;;
9276;SDS011;4676;42.678;23.244;2023-11-22T00:41:16;8.33;;;5.60;;
9276;SDS011;4676;42.678;23.244;2023-11-22T00:43:43;7.87;;;5.60;;
9276;SDS011;4676;42.678;23.244;2023-11-22T00:46:10;7.63;;;6.93;;
9276;SDS011;4676;42.678;23.244;2023-11-22T00:48:36;6.07;;;4.07;;
9276;SDS011;4676;42.678;23.244;2023-11-22T00:51:03;5.63;;;4.83;;
9276;SDS011;4676;42.678;23.244;2023-11-22T00:53:35;6.53;;;5.93;;
9276;SDS011;4676;42.678;23.244;2023-11-22T00:56:02;18.70;;;5.53;;
9276;SDS011;4676;42.678;23.244;2023-11-22T00:58:29;3.77;;;3.57;;
9276;SDS011;4676;42.678;23.244;2023-11-22T01:00:56;6.63;;;4.17;;
9276;SDS011;4676;42.678;23.244;2023-11-22T01:03:22;5.77;;;3.87;;
9276;SDS011;4676;42.678;23.244;2023-11-22T01:05:49;5.27;;;4.70;;
9276;SDS011;4676;42.678;23.244;2023-11-22T01:08:16;10.93;;;5.50;;
9276;SDS011;4676;42.678;23.244;2023-11-22T01:10:44;6.23;;;5.67;;
9276;SDS011;4676;42.678;23.244;2023-11-22T01:13:11;8.43;;;4.77;;
9276;SDS011;4676;42.678;23.244;2023-11-22T01:15:39;4.73;;;4.33;;
9276;SDS011;4676;42.678;23.244;2023-11-22T01:18:06;5.13;;;4.73;;
9276;SDS011;4676;42.678;23.244;2023-11-22T01:20:33;4.67;;;4.13;;
9276;SDS011;4676;42.678;23.244;2023-11-22T01:23:00;4.63;;;4.13;;
9276;SDS011;4676;42.678;23.244;2023-11-22T01:25:27;5.87;;;4.87;;
9276;SDS011;4676;42.678;23.244;2023-11-22T01:27:55;5.17;;;4.67;;
9276;SDS011;4676;42.678;23.244;2023-11-22T01:30:22;5.13;;;4.63;;
9276;SDS011;4676;42.678;23.244;2023-11-22T01:32:49;6.87;;;5.17;;
9276;SDS011;4676;42.678;23.244;2023-11-22T01:35:15;5.63;;;4.50;;
9276;SDS011;4676;42.678;23.244;2023-11-22T01:37:42;5.33;;;4.93;;
9276;SDS011;4676;42.678;23.244;2023-11-22T01:40:09;4.90;;;4.50;;
9276;SDS011;4676;42.678;23.244;2023-11-22T01:42:36;4.57;;;4.33;;
9276;SDS011;4676;42.678;23.244;2023-11-22T01:45:07;7.17;;;5.10;;
9276;SDS011;4676;42.678;23.244;2023-11-22T01:47:34;3.57;;;3.33;;
9276;SDS011;4676;42.678;23.244;2023-11-22T01:50:01;8.97;;;5.20;;
9276;SDS011;4676;42.678;23.244;2023-11-22T01:52:30;4.50;;;4.07;;
9276;SDS011;4676;42.678;23.244;2023-11-22T01:54:57;4.50;;;3.93;;
9276;SDS011;4676;42.678;23.244;2023-11-22T01:57:24;5.27;;;3.50;;
9276;SDS011;4676;42.678;23.244;2023-11-22T01:59:51;12.27;;;4.50;;
9276;SDS011;4676;42.678;23.244;2023-11-22T02:02:19;5.07;;;3.43;;
9276;SDS011;4676;42.678;23.244;2023-11-22T02:04:46;3.87;;;3.67;;
9276;SDS011;4676;42.678;23.244;2023-11-22T02:07:13;6.03;;;5.43;;
9276;SDS011;4676;42.678;23.244;2023-11-22T02:09:39;7.97;;;4.13;;
9276;SDS011;4676;42.678;23.244;2023-11-22T02:12:06;6.60;;;4.53;;
9276;SDS011;4676;42.678;23.244;2023-11-22T02:14:35;4.17;;;3.33;;
9276;SDS011;4676;42.678;23.244;2023-11-22T02:17:02;5.80;;;4.87;;
9276;SDS011;4676;42.678;23.244;2023-11-22T02:19:31;7.07;;;4.43;;
9276;SDS011;4676;42.678;23.244;2023-11-22T02:21:58;6.23;;;4.13;;
9276;SDS011;4676;42.678;23.244;2023-11-22T02:24:26;4.83;;;4.07;;
9276;SDS011;4676;42.678;23.244;2023-11-22T02:26:53;3.10;;;2.90;;
9276;SDS011;4676;42.678;23.244;2023-11-22T02:29:20;3.33;;;3.13;;
9276;SDS011;4676;42.678;23.244;2023-11-22T02:31:48;4.30;;;4.00;;
9276;SDS011;4676;42.678;23.244;2023-11-22T02:34:15;6.70;;;4.17;;
9276;SDS011;4676;42.678;23.244;2023-11-22T02:36:45;3.10;;;2.97;;
9276;SDS011;4676;42.678;23.244;2023-11-22T02:39:12;3.57;;;2.70;;
9276;SDS011;4676;42.678;23.244;2023-11-22T02:41:40;6.77;;;3.33;;
9276;SDS011;4676;42.678;23.244;2023-11-22T02:44:07;10.33;;;4.27;;
9276;SDS011;4676;42.678;23.244;2023-11-22T02:46:34;6.17;;;4.13;;
9276;SDS011;4676;42.678;23.244;2023-11-22T02:49:01;5.30;;;4.03;;
9276;SDS011;4676;42.678;23.244;2023-11-22T02:51:27;3.47;;;3.27;;
9276;SDS011;4676;42.678;23.244;2023-11-22T02:53:54;4.80;;;4.40;;
9276;SDS011;4676;42.678;23.244;2023-11-22T02:56:21;6.43;;;3.47;;
9276;SDS011;4676;42.678;23.244;2023-11-22T02:58:49;3.67;;;3.47;;
9276;SDS011;4676;42.678;23.244;2023-11-22T03:01:15;4.57;;;3.03;;
9276;SDS011;4676;42.678;23.244;2023-11-22T03:03:42;6.67;;;3.93;;
9276;SDS011;4676;42.678;23.244;2023-11-22T03:06:09;4.53;;;4.13;;
9276;SDS011;4676;42.678;23.244;2023-11-22T03:08:36;3.57;;;3.37;;
9276;SDS011;4676;42.678;23.244;2023-11-22T03:11:02;4.07;;;3.73;;
9276;SDS011;4676;42.678;23.244;2023-11-22T03:13:29;4.27;;;3.90;;
9276;SDS011;4676;42.678;23.244;2023-11-22T03:15:57;4.03;;;3.40;;
9276;SDS011;4676;42.678;23.244;2023-11-22T03:18:24;7.77;;;3.67;;
9276;SDS011;4676;42.678;23.244;2023-11-22T03:20:51;4.37;;;4.07;;
9276;SDS011;4676;42.678;23.244;2023-11-22T03:23:19;3.87;;;3.57;;
9276;SDS011;4676;42.678;23.244;2023-11-22T03:25:46;3.07;;;2.90;;
9276;SDS011;4676;42.678;23.244;2023-11-22T03:28:13;3.57;;;3.37;;
9276;SDS011;4676;42.678;23.244;2023-11-22T03:30:40;10.03;;;4.17;;
9276;SDS011;4676;42.678;23.244;2023-11-22T03:33:08;7.33;;;5.00;;
9276;SDS011;4676;42.678;23.244;2023-11-22T03:35:35;3.60;;;3.30;;
9276;SDS011;4676;42.678;23.244;2023-11-22T03:38:01;14.57;;;5.33;;
9276;SDS011;4676;42.678;23.244;2023-11-22T03:40:28;4.37;;;3.77;;
9276;SDS011;4676;42.678;23.244;2023-11-22T03:42:55;3.87;;;3.57;;
9276;SDS011;4676;42.678;23.244;2023-11-22T03:45:21;7.23;;;4.43;;
9276;SDS011;4676;42.678;23.244;2023-11-22T03:47:48;5.00;;;3.43;;
9276;SDS011;4676;42.678;23.244;2023-11-22T03:50:16;5.50;;;3.93;;
9276;SDS011;4676;42.678;23.244;2023-11-22T03:52:43;4.50;;;4.20;;
9276;SDS011;4676;42.678;23.244;2023-11-22T03:55:10;5.93;;;4.47;;
9276;SDS011;4676;42.678;23.244;2023-11-22T03:57:36;6.30;;;5.07;;
9276;SDS011;4676;42.678;23.244;2023-11-22T04:00:03;4.03;;;3.73;;
9276;SDS011;4676;42.678;23.244;2023-11-22T04:02:32;3.27;;;3.03;;
9276;SDS011;4676;42.678;23.244;2023-11-22T04:04:58;8.80;;;3.70;;
9276;SDS011;4676;42.678;23.244;2023-11-22T04:07:26;3.93;;;3.70;;
9276;SDS011;4676;42.678;23.244;2023-11-22T04:09:53;4.57;;;2.63;;
9276;SDS011;4676;42.678;23.244;2023-11-22T04:12:21;3.87;;;2.83;;
9276;SDS011;4676;42.678;23.244;2023-11-22T04:14:47;4.57;;;4.07;;
9276;SDS011;4676;42.678;23.244;2023-11-22T04:17:14;6.23;;;3.37;;
9276;SDS011;4676;42.678;23.244;2023-11-22T04:19:41;3.03;;;2.80;;
9276;SDS011;4676;42.678;23.244;2023-11-22T04:22:08;4.80;;;3.00;;
9276;SDS011;4676;42.678;23.244;2023-11-22T04:24:37;3.90;;;3.60;;
9276;SDS011;4676;42.678;23.244;2023-11-22T04:27:04;3.97;;;3.67;;
9276;SDS011;4676;42.678;23.244;2023-11-22T04:29:31;5.13;;;4.47;;
9276;SDS011;4676;42.678;23.244;2023-11-22T04:31:58;6.77;;;4.83;;
9276;SDS011;4676;42.678;23.244;2023-11-22T04:34:24;4.53;;;3.90;;
9276;SDS011;4676;42.678;23.244;2023-11-22T04:36:51;3.07;;;2.87;;
9276;SDS011;4676;42.678;23.244;2023-11-22T04:39:17;2.97;;;2.70;;
9276;SDS011;4676;42.678;23.244;2023-11-22T04:41:46;4.57;;;3.63;;
9276;SDS011;4676;42.678;23.244;2023-11-22T04:44:12;10.40;;;4.63;;
9276;SDS011;4676;42.678;23.244;2023-11-22T04:46:39;13.63;;;5.10;;
9276;SDS011;4676;42.678;23.244;2023-11-22T04:49:06;9.07;;;4.90;;
9276;SDS011;4676;42.678;23.244;2023-11-22T04:51:33;5.00;;;4.60;;
9276;SDS011;4676;42.678;23.244;2023-11-22T04:54:00;6.33;;;4.10;;
9276;SDS011;4676;42.678;23.244;2023-11-22T04:56:26;6.87;;;5.33;;
9276;SDS011;4676;42.678;23.244;2023-11-22T04:58:55;3.97;;;3.77;;
9276;SDS011;4676;42.678;23.244;2023-11-22T05:01:22;4.27;;;3.87;;
9276;SDS011;4676;42.678;23.244;2023-11-22T05:03:48;7.40;;;4.50;;
9276;SDS011;4676;42.678;23.244;2023-11-22T05:06:15;5.70;;;4.10;;
9276;SDS011;4676;42.678;23.244;2023-11-22T05:08:42;12.50;;;3.83;;
9276;SDS011;4676;42.678;23.244;2023-11-22T05:11:09;4.40;;;4.10;;
9276;SDS011;4676;42.678;23.244;2023-11-22T05:13:36;4.37;;;4.10;;
9276;SDS011;4676;42.678;23.244;2023-11-22T05:16:04;6.30;;;4.00;;
9276;SDS011;4676;42.678;23.244;2023-11-22T05:18:31;4.33;;;3.57;;
9276;SDS011;4676;42.678;23.244;2023-11-22T05:20:58;7.10;;;5.77;;
9276;SDS011;4676;42.678;23.244;2023-11-22T05:23:24;5.40;;;4.17;;
9276;SDS011;4676;42.678;23.244;2023-11-22T05:25:51;4.47;;;4.07;;
9276;SDS011;4676;42.678;23.244;2023-11-22T05:28:18;4.67;;;4.17;;
9276;SDS011;4676;42.678;23.244;2023-11-22T05:30:44;4.40;;;4.00;;
9276;SDS011;4676;42.678;23.244;2023-11-22T05:33:12;7.13;;;4.60;;
9276;SDS011;4676;42.678;23.244;2023-11-22T05:35:39;6.50;;;4.77;;
9276;SDS011;4676;42.678;23.244;2023-11-22T05:38:06;4.67;;;4.37;;
9276;SDS011;4676;42.678;23.244;2023-11-22T05:40:33;5.57;;;4.37;;
9276;SDS011;4676;42.678;23.244;2023-11-22T05:43:00;14.00;;;5.30;;
9276;SDS011;4676;42.678;23.244;2023-11-22T05:45:27;13.10;;;5.40;;
9276;SDS011;4676;42.678;23.244;2023-11-22T05:47:53;17.40;;;6.73;;
9276;SDS011;4676;42.678;23.244;2023-11-22T05:50:21;4.67;;;4.37;;
9276;SDS011;4676;42.678;23.244;2023-11-22T05:52:48;5.90;;;5.30;;
9276;SDS011;4676;42.678;23.244;2023-11-22T05:55:15;5.93;;;4.10;;
9276;SDS011;4676;42.678;23.244;2023-11-22T05:57:43;7.07;;;5.37;;
9276;SDS011;4676;42.678;23.244;2023-11-22T06:00:10;5.23;;;4.83;;
9276;SDS011;4676;42.678;23.244;2023-11-22T06:02:39;11.07;;;4.63;;
9276;SDS011;4676;42.678;23.244;2023-11-22T06:05:06;6.53;;;4.63;;
9276;SDS011;4676;42.678;23.244;2023-11-22T06:07:35;10.10;;;4.27;;
9276;SDS011;4676;42.678;23.244;2023-11-22T06:10:02;7.10;;;5.43;;
9276;SDS011;4676;42.678;23.244;2023-11-22T06:12:29;4.00;;;3.70;;
9276;SDS011;4676;42.678;23.244;2023-11-22T06:14:56;4.63;;;4.33;;
9276;SDS011;4676;42.678;23.244;2023-11-22T06:17:23;4.53;;;3.20;;
9276;SDS011;4676;42.678;23.244;2023-11-22T06:19:49;4.87;;;4.07;;
9276;SDS011;4676;42.678;23.244;2023-11-22T06:22:16;6.10;;;5.53;;
9276;SDS011;4676;42.678;23.244;2023-11-22T06:24:45;4.63;;;4.33;;
9276;SDS011;4676;42.678;23.244;2023-11-22T06:27:13;4.70;;;4.50;;
9276;SDS011;4676;42.678;23.244;2023-11-22T06:29:40;5.03;;;4.13;;
9276;SDS011;4676;42.678;23.244;2023-11-22T06:32:08;5.43;;;4.90;;
9276;SDS011;4676;42.678;23.244;2023-11-22T06:34:35;8.50;;;5.33;;
9276;SDS011;4676;42.678;23.244;2023-11-22T06:37:02;5.77;;;4.53;;
9276;SDS011;4676;42.678;23.244;2023-11-22T06:39:29;3.47;;;3.17;;
9276;SDS011;4676;42.678;23.244;2023-11-22T06:41:57;5.57;;;5.07;;
9276;SDS011;4676;42.678;23.244;2023-11-22T06:44:24;10.30;;;4.03;;
9276;SDS011;4676;42.678;23.244;2023-11-22T06:46:51;4.27;;;3.87;;
9276;SDS011;4676;42.678;23.244;2023-11-22T06:49:18;3.97;;;3.77;;
9276;SDS011;4676;42.678;23.244;2023-11-22T06:51:45;4.73;;;4.30;;
9276;SDS011;4676;42.678;23.244;2023-11-22T06:54:12;6.03;;;4.67;;
9276;SDS011;4676;42.678;23.244;2023-11-22T06:56:39;8.97;;;6.33;;
9276;SDS011;4676;42.678;23.244;2023-11-22T06:59:07;9.90;;;5.60;;
9276;SDS011;4676;42.678;23.244;2023-11-22T07:01:34;6.57;;;5.73;;
9276;SDS011;4676;42.678;23.244;2023-11-22T07:04:01;6.13;;;5.47;;
9276;SDS011;4676;42.678;23.244;2023-11-22T07:06:29;11.63;;;8.60;;
9276;SDS011;4676;42.678;23.244;2023-11-22T07:08:56;8.80;;;6.87;;
9276;SDS011;4676;42.678;23.244;2023-11-22T07:11:24;9.70;;;7.33;;
9276;SDS011;4676;42.678;23.244;2023-11-22T07:13:51;13.47;;;6.63;;
9276;SDS011;4676;42.678;23.244;2023-11-22T07:16:19;8.23;;;6.33;;
9276;SDS011;4676;42.678;23.244;2023-11-22T07:18:46;13.67;;;6.43;;
9276;SDS011;4676;42.678;23.244;2023-11-22T07:21:13;12.10;;;6.53;;
9276;SDS011;4676;42.678;23.244;2023-11-22T07:23:40;8.97;;;5.93;;
9276;SDS011;4676;42.678;23.244;2023-11-22T07:26:06;8.47;;;4.57;;
9276;SDS011;4676;42.678;23.244;2023-11-22T07:28:33;8.23;;;6.53;;
9276;SDS011;4676;42.678;23.244;2023-11-22T07:31:01;8.13;;;5.13;;
9276;SDS011;4676;42.678;23.244;2023-11-22T07:33:32;9.67;;;6.33;;
9276;SDS011;4676;42.678;23.244;2023-11-22T07:35:59;4.53;;;4.13;;
9276;SDS011;4676;42.678;23.244;2023-11-22T07:38:25;8.97;;;5.27;;
9276;SDS011;4676;42.678;23.244;2023-11-22T07:40:52;4.77;;;4.47;;
9276;SDS011;4676;42.678;23.244;2023-11-22T07:43:19;8.70;;;3.53;;
9276;SDS011;4676;42.678;23.244;2023-11-22T07:45:46;6.33;;;5.27;;
9276;SDS011;4676;42.678;23.244;2023-11-22T07:48:13;7.33;;;4.60;;
9276;SDS011;4676;42.678;23.244;2023-11-22T07:50:42;7.50;;;6.30;;
9276;SDS011;4676;42.678;23.244;2023-11-22T07:53:09;7.20;;;6.47;;
9276;SDS011;4676;42.678;23.244;2023-11-22T07:55:36;9.57;;;6.93;;
9276;SDS011;4676;42.678;23.244;2023-11-22T07:58:03;6.57;;;5.73;;
9276;SDS011;4676;42.678;23.244;2023-11-22T08:00:31;6.53;;;4.63;;
9276;SDS011;4676;42.678;23.244;2023-11-22T08:02:59;5.60;;;5.20;;
9276;SDS011;4676;42.678;23.244;2023-11-22T08:05:27;5.77;;;5.20;;
9276;SDS011;4676;42.678;23.244;2023-11-22T08:07:56;5.20;;;4.30;;
9276;SDS011;4676;42.678;23.244;2023-11-22T08:10:22;10.30;;;5.30;;
9276;SDS011;4676;42.678;23.244;2023-11-22T08:12:50;5.57;;;5.07;;
9276;SDS011;4676;42.678;23.244;2023-11-22T08:15:17;4.77;;;4.37;;
9276;SDS011;4676;42.678;23.244;2023-11-22T08:17:44;5.20;;;4.77;;
9276;SDS011;4676;42.678;23.244;2023-11-22T08:20:11;5.13;;;4.63;;
9276;SDS011;4676;42.678;23.244;2023-11-22T08:22:42;9.63;;;6.40;;
9276;SDS011;4676;42.678;23.244;2023-11-22T08:25:11;7.27;;;5.43;;
9276;SDS011;4676;42.678;23.244;2023-11-22T08:27:38;7.20;;;6.00;;
9276;SDS011;4676;42.678;23.244;2023-11-22T08:30:06;4.57;;;4.17;;
9276;SDS011;4676;42.678;23.244;2023-11-22T08:32:38;7.47;;;4.33;;
9276;SDS011;4676;42.678;23.244;2023-11-22T08:35:06;9.70;;;5.53;;
9276;SDS011;4676;42.678;23.244;2023-11-22T08:37:34;5.80;;;4.93;;
9276;SDS011;4676;42.678;23.244;2023-11-22T08:40:03;12.20;;;4.23;;
9276;SDS011;4676;42.678;23.244;2023-11-22T08:42:33;5.50;;;4.97;;
9276;SDS011;4676;42.678;23.244;2023-11-22T08:45:00;5.03;;;4.60;;
9276;SDS011;4676;42.678;23.244;2023-11-22T08:47:28;6.67;;;5.00;;
9276;SDS011;4676;42.678;23.244;2023-11-22T08:49:54;4.90;;;4.50;;
9276;SDS011;4676;42.678;23.244;2023-11-22T08:52:21;13.13;;;3.83;;
9276;SDS011;4676;42.678;23.244;2023-11-22T08:54:49;6.20;;;4.83;;
9276;SDS011;4676;42.678;23.244;2023-11-22T08:57:17;4.27;;;3.97;;
9276;SDS011;4676;42.678;23.244;2023-11-22T08:59:45;4.37;;;4.03;;
9276;SDS011;4676;42.678;23.244;2023-11-22T09:02:12;7.00;;;5.27;;
9276;SDS011;4676;42.678;23.244;2023-11-22T09:04:40;4.77;;;4.20;;
9276;SDS011;4676;42.678;23.244;2023-11-22T09:07:07;5.37;;;4.27;;
9276;SDS011;4676;42.678;23.244;2023-11-22T09:09:35;7.20;;;5.67;;
9276;SDS011;4676;42.678;23.244;2023-11-22T09:12:02;6.70;;;5.43;;
9276;SDS011;4676;42.678;23.244;2023-11-22T09:14:29;5.37;;;4.87;;
9276;SDS011;4676;42.678;23.244;2023-11-22T09:16:57;5.33;;;5.00;;
9276;SDS011;4676;42.678;23.244;2023-11-22T09:19:26;5.30;;;4.73;;
9276;SDS011;4676;42.678;23.244;2023-11-22T09:21:53;4.20;;;3.93;;
9276;SDS011;4676;42.678;23.244;2023-11-22T09:24:20;4.53;;;4.07;;
9276;SDS011;4676;42.678;23.244;2023-11-22T09:26:46;7.27;;;3.57;;
9276;SDS011;4676;42.678;23.244;2023-11-22T09:29:13;10.00;;;3.70;;
9276;SDS011;4676;42.678;23.244;2023-11-22T09:31:40;5.63;;;4.50;;
9276;SDS011;4676;42.678;23.244;2023-11-22T09:34:09;4.97;;;4.07;;
9276;SDS011;4676;42.678;23.244;2023-11-22T09:36:36;5.20;;;4.10;;
9276;SDS011;4676;42.678;23.244;2023-11-22T09:39:03;5.67;;;2.87;;
9276;SDS011;4676;42.678;23.244;2023-11-22T09:41:33;8.87;;;4.20;;
9276;SDS011;4676;42.678;23.244;2023-11-22T09:44:00;5.17;;;4.80;;
9276;SDS011;4676;42.678;23.244;2023-11-22T09:46:28;5.13;;;4.63;;
9276;SDS011;4676;42.678;23.244;2023-11-22T09:48:58;4.03;;;3.73;;
9276;SDS011;4676;42.678;23.244;2023-11-22T09:51:32;3.80;;;3.53;;
9276;SDS011;4676;42.678;23.244;2023-11-22T09:54:03;4.10;;;3.70;;
9276;SDS011;4676;42.678;23.244;2023-11-22T09:56:32;4.20;;;3.80;;
9276;SDS011;4676;42.678;23.244;2023-11-22T09:59:02;4.83;;;4.00;;
9276;SDS011;4676;42.678;23.244;2023-11-22T10:01:31;3.63;;;3.33;;
9276;SDS011;4676;42.678;23.244;2023-11-22T10:04:01;3.93;;;3.63;;
9276;SDS011;4676;42.678;23.244;2023-11-22T10:06:31;5.83;;;3.63;;
9276;SDS011;4676;42.678;23.244;2023-11-22T10:09:01;4.00;;;3.70;;
9276;SDS011;4676;42.678;23.244;2023-11-22T10:11:32;6.77;;;4.23;;
9276;SDS011;4676;42.678;23.244;2023-11-22T10:14:01;8.67;;;2.87;;
9276;SDS011;4676;42.678;23.244;2023-11-22T10:16:28;3.20;;;2.90;;
9276;SDS011;4676;42.678;23.244;2023-11-22T10:18:54;9.07;;;3.17;;
9276;SDS011;4676;42.678;23.244;2023-11-22T10:21:22;5.60;;;3.60;;
9276;SDS011;4676;42.678;23.244;2023-11-22T10:23:51;4.40;;;3.63;;
9276;SDS011;4676;42.678;23.244;2023-11-22T10:26:21;3.63;;;3.37;;
9276;SDS011;4676;42.678;23.244;2023-11-22T10:28:50;3.73;;;3.53;;
9276;SDS011;4676;42.678;23.244;2023-11-22T10:31:16;4.50;;;4.10;;
9276;SDS011;4676;42.678;23.244;2023-11-22T10:33:44;3.80;;;3.60;;
9276;SDS011;4676;42.678;23.244;2023-11-22T10:36:11;4.23;;;3.77;;
9276;SDS011;4676;42.678;23.244;2023-11-22T10:38:38;4.70;;;4.30;;
9276;SDS011;4676;42.678;23.244;2023-11-22T10:41:07;5.57;;;3.83;;
9276;SDS011;4676;42.678;23.244;2023-11-22T10:43:35;4.53;;;4.13;;
9276;SDS011;4676;42.678;23.244;2023-11-22T10:46:02;13.67;;;4.57;;
9276;SDS011;4676;42.678;23.244;2023-11-22T10:48:31;7.37;;;5.53;;
9276;SDS011;4676;42.678;23.244;2023-11-22T10:51:00;9.87;;;5.83;;
9276;SDS011;4676;42.678;23.244;2023-11-22T10:53:31;14.43;;;5.43;;
9276;SDS011;4676;42.678;23.244;2023-11-22T10:56:04;7.43;;;5.90;;
9276;SDS011;4676;42.678;23.244;2023-11-22T10:58:36;10.80;;;6.13;;
9276;SDS011;4676;42.678;23.244;2023-11-22T11:01:15;20.97;;;7.13;;
9276;SDS011;4676;42.678;23.244;2023-11-22T11:03:45;5.50;;;5.10;;
9276;SDS011;4676;42.678;23.244;2023-11-22T11:06:19;7.97;;;6.03;;
9276;SDS011;4676;42.678;23.244;2023-11-22T11:08:52;6.37;;;5.50;;
9276;SDS011;4676;42.678;23.244;2023-11-22T11:11:21;6.50;;;4.83;;
9276;SDS011;4676;42.678;23.244;2023-11-22T11:13:50;8.07;;;5.20;;
9276;SDS011;4676;42.678;23.244;2023-11-22T11:16:18;15.40;;;5.37;;
9276;SDS011;4676;42.678;23.244;2023-11-22T11:18:45;7.20;;;6.33;;
9276;SDS011;4676;42.678;23.244;2023-11-22T11:21:12;5.27;;;4.83;;
9276;SDS011;4676;42.678;23.244;2023-11-22T11:23:41;8.30;;;5.87;;
9276;SDS011;4676;42.678;23.244;2023-11-22T11:26:14;5.37;;;4.90;;
9276;SDS011;4676;42.678;23.244;2023-11-22T11:28:44;7.90;;;4.83;;
9276;SDS011;4676;42.678;23.244;2023-11-22T11:31:13;6.07;;;5.10;;
9276;SDS011;4676;42.678;23.244;2023-11-22T11:33:52;5.93;;;4.60;;
9276;SDS011;4676;42.678;23.244;2023-11-22T11:36:21;8.03;;;4.63;;
9276;SDS011;4676;42.678;23.244;2023-11-22T11:38:49;9.90;;;6.73;;
9276;SDS011;4676;42.678;23.244;2023-11-22T11:41:17;7.27;;;5.60;;
9276;SDS011;4676;42.678;23.244;2023-11-22T11:43:45;6.60;;;5.63;;
9276;SDS011;4676;42.678;23.244;2023-11-22T11:46:14;7.73;;;5.57;;
9276;SDS011;4676;42.678;23.244;2023-11-22T11:48:45;8.67;;;5.93;;
9276;SDS011;4676;42.678;23.244;2023-11-22T11:51:14;5.17;;;4.60;;
9276;SDS011;4676;42.678;23.244;2023-11-22T11:53:41;8.17;;;6.40;;
9276;SDS011;4676;42.678;23.244;2023-11-22T11:56:09;8.50;;;6.40;;
9276;SDS011;4676;42.678;23.244;2023-11-22T11:58:36;5.47;;;5.00;;
9276;SDS011;4676;42.678;23.244;2023-11-22T12:01:05;12.07;;;6.83;;
9276;SDS011;4676;42.678;23.244;2023-11-22T12:03:32;9.73;;;5.27;;
9276;SDS011;4676;42.678;23.244;2023-11-22T12:05:59;8.83;;;6.10;;
9276;SDS011;4676;42.678;23.244;2023-11-22T12:08:26;7.73;;;6.97;;
9276;SDS011;4676;42.678;23.244;2023-11-22T12:10:55;9.13;;;5.73;;
9276;SDS011;4676;42.678;23.244;2023-11-22T12:13:24;14.43;;;6.90;;
9276;SDS011;4676;42.678;23.244;2023-11-22T12:15:51;6.57;;;6.00;;
9276;SDS011;4676;42.678;23.244;2023-11-22T12:18:21;11.53;;;7.67;;
9276;SDS011;4676;42.678;23.244;2023-11-22T12:20:54;14.13;;;9.03;;
9276;SDS011;4676;42.678;23.244;2023-11-22T12:23:22;14.00;;;8.73;;
9276;SDS011;4676;42.678;23.244;2023-11-22T12:25:53;12.57;;;8.23;;
9276;SDS011;4676;42.678;23.244;2023-11-22T12:28:21;23.43;;;10.30;;
9276;SDS011;4676;42.678;23.244;2023-11-22T12:30:49;18.97;;;9.80;;
9276;SDS011;4676;42.678;23.244;2023-11-22T12:33:16;13.77;;;9.13;;
9276;SDS011;4676;42.678;23.244;2023-11-22T12:35:46;16.60;;;8.47;;
9276;SDS011;4676;42.678;23.244;2023-11-22T12:38:14;10.97;;;9.17;;
9276;SDS011;4676;42.678;23.244;2023-11-22T12:40:43;15.67;;;9.93;;
9276;SDS011;4676;42.678;23.244;2023-11-22T12:43:12;11.70;;;8.77;;
9276;SDS011;4676;42.678;23.244;2023-11-22T12:45:40;7.53;;;6.73;;
9276;SDS011;4676;42.678;23.244;2023-11-22T12:48:20;11.47;;;6.63;;
9276;SDS011;4676;42.678;23.244;2023-11-22T12:50:51;6.67;;;5.23;;
9276;SDS011;4676;42.678;23.244;2023-11-22T12:53:19;11.30;;;6.83;;
9276;SDS011;4676;42.678;23.244;2023-11-22T12:55:47;10.70;;;6.80;;
9276;SDS011;4676;42.678;23.244;2023-11-22T12:58:16;7.23;;;6.00;;
9276;SDS011;4676;42.678;23.244;2023-11-22T13:00:44;7.30;;;6.50;;
9276;SDS011;4676;42.678;23.244;2023-11-22T13:03:11;11.37;;;5.93;;
9276;SDS011;4676;42.678;23.244;2023-11-22T13:05:38;7.63;;;6.50;;
9276;SDS011;4676;42.678;23.244;2023-11-22T13:08:09;5.70;;;5.30;;
9276;SDS011;4676;42.678;23.244;2023-11-22T13:10:38;5.10;;;4.70;;
9276;SDS011;4676;42.678;23.244;2023-11-22T13:13:05;10.00;;;5.23;;
9276;SDS011;4676;42.678;23.244;2023-11-22T13:15:33;8.07;;;5.47;;
9276;SDS011;4676;42.678;23.244;2023-11-22T13:18:00;7.73;;;4.87;;
9276;SDS011;4676;42.678;23.244;2023-11-22T13:20:27;4.83;;;4.33;;
9276;SDS011;4676;42.678;23.244;2023-11-22T13:22:54;11.00;;;5.77;;
9276;SDS011;4676;42.678;23.244;2023-11-22T13:25:23;5.57;;;4.97;;
9276;SDS011;4676;42.678;23.244;2023-11-22T13:27:50;7.57;;;4.10;;
9276;SDS011;4676;42.678;23.244;2023-11-22T13:30:18;8.17;;;5.33;;
9276;SDS011;4676;42.678;23.244;2023-11-22T13:32:48;6.40;;;5.80;;
9276;SDS011;4676;42.678;23.244;2023-11-22T13:35:15;8.40;;;4.67;;
9276;SDS011;4676;42.678;23.244;2023-11-22T13:37:42;6.20;;;5.37;;
9276;SDS011;4676;42.678;23.244;2023-11-22T13:40:10;5.37;;;4.97;;
9276;SDS011;4676;42.678;23.244;2023-11-22T13:42:43;11.50;;;6.07;;
9276;SDS011;4676;42.678;23.244;2023-11-22T13:45:11;6.87;;;4.73;;
9276;SDS011;4676;42.678;23.244;2023-11-22T13:47:42;6.53;;;4.37;;
9276;SDS011;4676;42.678;23.244;2023-11-22T13:50:11;8.53;;;4.93;;
9276;SDS011;4676;42.678;23.244;2023-11-22T13:52:43;5.93;;;5.33;;
9276;SDS011;4676;42.678;23.244;2023-11-22T13:55:10;10.20;;;5.47;;
9276;SDS011;4676;42.678;23.244;2023-11-22T13:57:37;5.17;;;4.47;;
9276;SDS011;4676;42.678;23.244;2023-11-22T14:00:07;4.73;;;4.43;;
9276;SDS011;4676;42.678;23.244;2023-11-22T14:02:37;4.50;;;3.87;;
9276;SDS011;4676;42.678;23.244;2023-11-22T14:05:05;7.10;;;5.10;;
9276;SDS011;4676;42.678;23.244;2023-11-22T14:07:33;9.60;;;6.60;;
9276;SDS011;4676;42.678;23.244;2023-11-22T14:10:01;4.93;;;4.53;;
9276;SDS011;4676;42.678;23.244;2023-11-22T14:12:29;4.97;;;4.43;;
9276;SDS011;4676;42.678;23.244;2023-11-22T14:14:56;4.07;;;3.73;;
9276;SDS011;4676;42.678;23.244;2023-11-22T14:17:24;5.77;;;3.70;;
9276;SDS011;4676;42.678;23.244;2023-11-22T14:19:51;3.70;;;2.93;;
9276;SDS011;4676;42.678;23.244;2023-11-22T14:22:20;3.37;;;3.10;;
9276;SDS011;4676;42.678;23.244;2023-11-22T14:24:47;4.70;;;3.07;;
9276;SDS011;4676;42.678;23.244;2023-11-22T14:27:14;2.63;;;2.43;;
9276;SDS011;4676;42.678;23.244;2023-11-22T14:29:40;4.37;;;3.57;;
9276;SDS011;4676;42.678;23.244;2023-11-22T14:32:07;3.33;;;3.13;;
9276;SDS011;4676;42.678;23.244;2023-11-22T14:34:35;7.03;;;2.87;;
9276;SDS011;4676;42.678;23.244;2023-11-22T14:37:03;4.93;;;3.47;;
9276;SDS011;4676;42.678;23.244;2023-11-22T14:39:31;2.73;;;2.60;;
9276;SDS011;4676;42.678;23.244;2023-11-22T14:41:59;3.60;;;3.30;;
9276;SDS011;4676;42.678;23.244;2023-11-22T14:44:25;5.77;;;3.90;;
9276;SDS011;4676;42.678;23.244;2023-11-22T14:46:52;5.27;;;4.13;;
9276;SDS011;4676;42.678;23.244;2023-11-22T14:49:19;9.63;;;4.27;;
9276;SDS011;4676;42.678;23.244;2023-11-22T14:51:47;4.90;;;3.77;;
